This is the latest recevied weather packets stored in our database for station/object KF4ERV-4. If no packets are shown the sender has not sent any weather packets the latest 10 day(s).
| Time | Temp. | Humidity | Pressure | Rain* | Wind** | Luminosity | Snow |
|---|---|---|---|---|---|---|---|
| 1777828417 | 17.78° C | 37% | 1020 hPa | 0 mm | - | - | - |
| 1777828356 | 17.78° C | 37% | 1020 hPa | 0 mm | - | - | - |
| 1777828348 | 16.11° C | 41% | 1021 hPa | 0 mm | - | - | - |
| 1777828228 | 17.78° C | 37% | 1020 hPa | 0 mm | - | - | - |
| 1777828227 | 17.78° C | 39% | 1020.2 hPa | 0 mm | - | - | - |
| 1777828227 | 16.67° C | 39% | 1020.8 hPa | 0 mm | - | - | - |
| 1777828187 | 17.78° C | 37% | 1020 hPa | 0 mm | - | - | - |
| 1777828065 | 17.78° C | 39% | 1020.2 hPa | 0 mm | - | - | - |
| 1777827890 | 17.78° C | 39% | 1020.2 hPa | 0 mm | - | - | - |
| 1777827776 | 16.67° C | 39% | 1020.8 hPa | 0 mm | - | - | - |
| 1777827593 | 16.67° C | 39% | 1020.8 hPa | 0 mm | - | - | - |
| 1777827486 | 16.67° C | 39% | 1020.9 hPa | 0 mm | - | - | - |
| 1777827403 | 17.22° C | 40% | 1021 hPa | 0 mm | - | - | - |
| 1777827285 | 16.67° C | 39% | 1020.9 hPa | 0 mm | - | - | - |
| 1777827196 | 17.22° C | 40% | 1021 hPa | 0 mm | - | - | - |
| 1777826988 | 17.22° C | 40% | 1021 hPa | 0 mm | - | - | - |
| 1777826970 | 16.67° C | 39% | 1021 hPa | 0 mm | - | - | - |
| 1777826907 | 16.67° C | 39% | 1021 hPa | 0 mm | - | - | - |
| 1777826692 | 16.67° C | 39% | 1021 hPa | 0 mm | - | - | - |
| 1777826618 | 16.11° C | 41% | 1021 hPa | 0 mm | - | - | - |
| 1777826383 | 16.11° C | 41% | 1021 hPa | 0 mm | - | - | - |
| 1777826325 | 15° C | 39% | 1021 hPa | 0 mm | - | - | - |
| 1777826088 | 15° C | 39% | 1021 hPa | 0 mm | - | - | - |
| 1777826036 | 16.67° C | 38% | 1021 hPa | 0 mm | - | - | - |
| 1777825789 | 16.67° C | 38% | 1021 hPa | 0 mm | - | - | - |
* Rain latest hour (hover to see other rain measurements)
** Current wind speed in m/s (hover to see current wind gust speed)